createdAt,value
2022-09-13T00:02:15.230Z,100476.69
2022-09-13T00:04:42.937Z,100467.06
2022-09-13T00:07:10.641Z,100446.72
2022-09-13T00:09:38.543Z,100454.22
2022-09-13T00:12:06.600Z,100442.31
2022-09-13T00:14:34.410Z,100437.69
2022-09-13T00:17:03.654Z,100428.72
2022-09-13T00:19:31.366Z,100437.78
2022-09-13T00:21:59.061Z,100435.53
2022-09-13T00:24:26.971Z,100436.97
2022-09-13T00:26:54.670Z,100441.91
2022-09-13T00:29:22.363Z,100443.72
2022-09-13T00:31:50.146Z,100437.72
2022-09-13T00:34:19.240Z,100430.41
2022-09-13T00:36:47.207Z,100418.84
2022-09-13T00:39:14.955Z,100415.66
2022-09-13T00:41:42.650Z,100403.00
2022-09-13T00:44:43.455Z,100423.66
2022-09-13T00:47:12.978Z,100419.72
2022-09-13T00:49:44.284Z,100420.16
2022-09-13T00:52:19.596Z,100414.91
2022-09-13T00:54:51.190Z,100432.88
2022-09-13T00:57:23.137Z,100429.13
2022-09-13T00:59:55.582Z,100412.84
2022-09-13T01:02:23.828Z,100426.91
2022-09-13T01:04:53.087Z,100433.44
2022-09-13T01:07:20.964Z,100417.00
2022-09-13T01:09:50.973Z,100415.53
2022-09-13T01:12:31.909Z,100416.72
2022-09-13T01:15:01.876Z,100408.72
2022-09-13T01:17:31.113Z,100406.25
2022-09-13T01:20:01.044Z,100404.25
2022-09-13T01:23:15.927Z,100402.94
2022-09-13T01:26:19.433Z,100395.31
2022-09-13T01:29:31.733Z,100380.31
2022-09-13T01:32:10.191Z,100365.84
2022-09-13T01:34:49.835Z,100350.66
2022-09-13T01:37:47.730Z,100349.69
2022-09-13T01:40:32.755Z,100350.28
2022-09-13T01:43:18.085Z,100339.25
2022-09-13T01:45:54.371Z,100339.75
2022-09-13T01:48:30.914Z,100319.13
2022-09-13T01:51:05.668Z,100339.44
2022-09-13T01:53:41.765Z,100332.81
2022-09-13T01:56:15.361Z,100322.09
2022-09-13T01:58:48.031Z,100328.31
2022-09-13T02:01:19.388Z,100321.28
2022-09-13T02:03:55.780Z,100315.22
2022-09-13T02:06:27.663Z,100308.66
2022-09-13T02:08:58.045Z,100255.91
2022-09-13T02:11:25.900Z,100264.97
2022-09-13T02:13:59.727Z,100823.03
2022-09-13T02:16:34.018Z,100756.97
2022-09-13T02:19:08.339Z,100716.28
2022-09-13T02:21:42.617Z,100696.53
2022-09-13T02:24:14.761Z,100743.53
2022-09-13T02:26:45.578Z,100803.38
2022-09-13T02:29:19.890Z,100886.88
2022-09-13T02:31:52.644Z,100854.50
2022-09-13T02:34:24.199Z,100846.84
2022-09-13T02:36:55.570Z,100842.50
2022-09-13T02:39:26.536Z,100835.50
2022-09-13T02:41:59.609Z,100821.22
2022-09-13T02:44:34.434Z,100806.34
2022-09-13T02:47:12.082Z,100785.72
2022-09-13T02:49:51.652Z,100763.31
2022-09-13T02:52:31.111Z,100769.06
2022-09-13T02:55:14.788Z,100805.69
2022-09-13T02:57:53.196Z,100811.78
2022-09-13T03:00:20.983Z,100812.50
2022-09-13T03:02:51.014Z,100815.53
2022-09-13T03:05:20.371Z,100841.50
2022-09-13T03:07:48.825Z,100847.19
2022-09-13T03:10:17.206Z,100858.44
2022-09-13T03:13:05.906Z,100873.59
2022-09-13T03:15:52.608Z,100887.66
2022-09-13T03:18:38.688Z,100903.72
2022-09-13T03:21:17.520Z,100914.56
2022-09-13T03:23:56.788Z,100908.38
2022-09-13T03:26:40.990Z,100913.22
2022-09-13T03:29:31.718Z,100906.19
2022-09-13T03:32:16.384Z,100907.03
2022-09-13T03:34:49.890Z,100892.84
2022-09-13T03:37:26.229Z,100876.88
2022-09-13T03:40:00.222Z,100877.56
2022-09-13T03:42:36.223Z,100870.56
2022-09-13T03:45:06.278Z,100862.47
2022-09-13T03:47:37.339Z,100869.03
2022-09-13T03:50:08.718Z,100866.91
2022-09-13T03:52:38.797Z,100844.06
2022-09-13T03:55:08.847Z,100841.47
2022-09-13T03:57:38.121Z,100845.03
2022-09-13T04:00:07.201Z,100835.44
2022-09-13T04:02:34.926Z,100818.66
2022-09-13T04:05:02.709Z,100806.22
2022-09-13T04:07:30.402Z,100799.50
2022-09-13T04:09:59.485Z,100799.63
2022-09-13T04:12:28.490Z,100789.38
2022-09-13T04:14:56.190Z,100788.91
2022-09-13T04:17:24.193Z,100749.94
2022-09-13T04:19:51.922Z,100752.81
2022-09-13T04:22:19.659Z,100782.28
2022-09-13T04:24:47.359Z,100774.16
2022-09-13T04:27:16.484Z,100778.47
2022-09-13T04:29:44.169Z,100773.03
2022-09-13T04:32:11.844Z,100771.81
2022-09-13T04:34:39.557Z,100766.13
2022-09-13T04:37:07.231Z,100776.63
2022-09-13T04:39:34.962Z,100783.56
2022-09-13T04:42:03.585Z,100788.88
2022-09-13T04:44:33.460Z,100783.63
2022-09-13T04:47:01.227Z,100783.56
2022-09-13T04:49:28.999Z,100764.59
2022-09-13T04:51:56.771Z,100773.59
2022-09-13T04:54:24.484Z,100769.97
2022-09-13T04:56:52.223Z,100752.91
2022-09-13T04:59:19.908Z,100748.47
2022-09-13T05:01:49.070Z,100744.25
2022-09-13T05:04:17.003Z,100743.06
2022-09-13T05:06:44.831Z,100753.75
2022-09-13T05:09:14.752Z,100770.47
2022-09-13T05:11:43.266Z,100776.34
2022-09-13T05:14:12.103Z,100827.13
2022-09-13T05:16:40.466Z,100840.75
2022-09-13T05:19:10.631Z,100839.31
2022-09-13T05:21:38.404Z,100848.63
2022-09-13T05:24:06.509Z,100844.94
2022-09-13T05:26:34.337Z,100850.50
2022-09-13T05:29:02.351Z,100848.66
2022-09-13T05:31:32.052Z,100852.72
2022-09-13T05:34:01.714Z,100846.09
2022-09-13T05:36:30.986Z,100843.56
2022-09-13T05:39:19.172Z,100845.34
2022-09-13T05:41:47.204Z,100852.91
2022-09-13T05:44:15.048Z,100843.50
2022-09-13T05:46:43.396Z,100830.00
2022-09-13T05:49:13.549Z,100829.84
2022-09-13T05:51:42.704Z,100836.88
2022-09-13T05:54:12.549Z,100844.06
2022-09-13T05:56:40.313Z,100854.72
2022-09-13T05:59:08.975Z,100841.63
2022-09-13T06:01:36.814Z,100853.34
2022-09-13T06:04:04.700Z,100833.00
2022-09-13T06:06:32.407Z,100836.94
2022-09-13T06:09:01.615Z,100836.41
2022-09-13T06:11:29.367Z,100844.00
2022-09-13T06:13:57.085Z,100841.03
2022-09-13T06:16:24.817Z,100851.19
2022-09-13T06:18:52.579Z,100840.47
2022-09-13T06:21:25.752Z,100830.38
2022-09-13T06:23:56.118Z,100835.56
2022-09-13T06:26:26.801Z,100836.16
2022-09-13T06:28:56.014Z,100826.09
2022-09-13T06:31:25.823Z,100830.75
2022-09-13T06:33:58.031Z,100846.97
2022-09-13T06:36:26.066Z,100851.16
2022-09-13T06:38:54.256Z,100859.50
2022-09-13T06:41:24.925Z,100863.84
2022-09-13T06:43:56.307Z,100866.03
2022-09-13T06:46:25.425Z,100867.44
2022-09-13T06:48:54.057Z,100861.06
2022-09-13T06:51:23.735Z,100860.22
2022-09-13T06:53:52.780Z,100865.91
2022-09-13T06:56:22.483Z,100863.69
2022-09-13T06:58:51.982Z,100867.72
2022-09-13T07:01:23.249Z,100864.56
2022-09-13T07:03:52.637Z,100867.16
2022-09-13T07:06:22.804Z,100870.22
2022-09-13T07:08:52.138Z,100876.41
2022-09-13T07:11:21.371Z,100874.06
2022-09-13T07:13:50.414Z,100885.34
2022-09-13T07:16:19.079Z,100888.03
2022-09-13T07:18:52.360Z,100881.13
2022-09-13T07:21:20.658Z,100889.97
2022-09-13T07:23:48.378Z,100897.00
2022-09-13T07:26:16.436Z,100897.16
2022-09-13T07:28:46.371Z,100891.50
2022-09-13T07:31:15.771Z,100881.63
2022-09-13T07:33:44.726Z,100884.00
2022-09-13T07:36:14.703Z,100881.97
2022-09-13T07:38:45.646Z,100862.84
2022-09-13T07:41:15.587Z,100860.38
2022-09-13T07:43:44.106Z,100865.56
2022-09-13T07:46:13.488Z,100856.44
2022-09-13T07:48:43.098Z,100847.50
2022-09-13T07:51:14.110Z,100844.31
2022-09-13T07:53:43.386Z,100827.13
2022-09-13T07:56:12.846Z,100820.84
2022-09-13T07:58:42.237Z,100810.84
2022-09-13T08:01:14.002Z,100806.91
2022-09-13T08:03:42.278Z,100791.72
2022-09-13T08:06:10.513Z,100797.09
2022-09-13T08:08:39.578Z,100780.75
2022-09-13T08:11:08.356Z,100753.25
2022-09-13T08:13:36.068Z,100732.16
2022-09-13T08:16:05.227Z,100740.66
2022-09-13T08:18:33.630Z,100713.47
2022-09-13T08:21:02.483Z,100685.53
2022-09-13T08:23:30.491Z,100680.38
2022-09-13T08:26:04.122Z,100666.09
2022-09-13T08:28:32.613Z,100636.16
2022-09-13T08:31:05.202Z,100647.03
2022-09-13T08:33:33.839Z,100597.22
2022-09-13T08:36:02.153Z,100596.97
2022-09-13T08:38:30.299Z,100571.41
2022-09-13T08:41:00.456Z,100554.66
2022-09-13T08:43:45.488Z,100535.72
2022-09-13T08:46:22.470Z,100500.16
2022-09-13T08:48:53.665Z,100498.28
2022-09-13T08:51:42.812Z,100473.84
2022-09-13T08:54:14.629Z,100416.25
2022-09-13T08:56:47.122Z,100409.03
2022-09-13T08:59:32.370Z,100444.31
2022-09-13T09:02:14.002Z,100429.28
2022-09-13T09:04:47.884Z,100418.13
2022-09-13T09:07:20.152Z,100414.56
2022-09-13T09:09:54.573Z,100372.84
2022-09-13T09:12:30.366Z,100352.28
2022-09-13T09:15:06.249Z,100272.66
2022-09-13T09:17:46.486Z,100235.09
2022-09-13T09:20:24.921Z,100188.94
2022-09-13T09:22:55.085Z,100163.81
2022-09-13T09:25:26.211Z,100217.50
2022-09-13T09:27:54.903Z,100211.16
2022-09-13T09:30:24.072Z,100176.34
2022-09-13T09:33:14.585Z,100160.28
2022-09-13T09:35:54.073Z,99784.53
2022-09-13T09:38:33.811Z,100379.09
2022-09-13T09:41:05.700Z,100435.75
2022-09-13T09:43:37.038Z,100452.72
2022-09-13T09:46:10.264Z,100446.31
2022-09-13T09:48:43.903Z,100469.00
2022-09-13T09:51:14.666Z,100455.59
2022-09-13T09:53:47.506Z,100407.28
2022-09-13T09:56:24.420Z,100422.25
2022-09-13T09:58:53.159Z,100438.88
2022-09-13T10:01:25.481Z,100498.88
2022-09-13T10:04:04.482Z,100404.41
2022-09-13T10:06:32.957Z,100419.47
2022-09-13T10:09:03.629Z,100456.56
2022-09-13T10:11:43.536Z,100453.47
2022-09-13T10:14:30.722Z,100468.13
2022-09-13T10:17:18.490Z,100448.16
2022-09-13T10:19:55.242Z,100485.06
2022-09-13T10:22:23.608Z,100515.94
2022-09-13T10:24:51.621Z,100500.97
2022-09-13T10:27:27.789Z,100463.78
2022-09-13T10:29:59.755Z,100425.78
2022-09-13T10:32:30.214Z,100403.16
2022-09-13T10:35:04.397Z,100424.94
2022-09-13T10:37:35.385Z,100412.72
2022-09-13T10:40:08.819Z,100432.97
2022-09-13T10:42:37.499Z,100489.16
2022-09-13T10:45:07.707Z,100526.94
2022-09-13T10:47:47.877Z,100553.47
2022-09-13T10:50:24.241Z,100568.13
2022-09-13T10:52:52.994Z,100567.88
2022-09-13T10:55:35.714Z,100569.25
2022-09-13T10:58:19.206Z,100570.31
2022-09-13T11:01:02.809Z,100579.47
2022-09-13T11:03:47.268Z,100588.56
2022-09-13T11:06:24.531Z,100576.78
2022-09-13T11:08:58.697Z,100571.66
2022-09-13T11:11:36.514Z,100585.72
2022-09-13T11:14:19.902Z,100581.97
2022-09-13T11:17:00.637Z,100590.31
2022-09-13T11:20:16.911Z,100590.22
2022-09-13T11:23:15.231Z,100585.84
2022-09-13T11:25:55.324Z,100588.06
2022-09-13T11:28:34.598Z,100581.34
2022-09-13T11:31:20.424Z,100588.88
2022-09-13T11:33:59.889Z,100589.69
2022-09-13T11:36:54.350Z,100586.53
2022-09-13T11:39:32.063Z,100582.25
2022-09-13T11:42:12.773Z,100583.41
2022-09-13T11:44:59.418Z,100580.91
2022-09-13T11:47:39.764Z,100568.34
2022-09-13T11:50:27.260Z,100573.94
2022-09-13T11:53:12.138Z,100572.66
2022-09-13T11:55:47.106Z,100586.59
2022-09-13T11:58:19.707Z,100569.03
2022-09-13T12:00:51.370Z,100583.34
2022-09-13T12:03:28.431Z,100582.34
2022-09-13T12:06:01.228Z,100578.09
2022-09-13T12:08:33.659Z,100582.94
2022-09-13T12:11:07.342Z,100579.53
2022-09-13T12:13:42.519Z,100575.38
2022-09-13T12:16:17.311Z,100571.25
2022-09-13T12:18:49.337Z,100567.84
2022-09-13T12:21:19.438Z,100561.53
2022-09-13T12:23:52.973Z,100559.09
2022-09-13T12:26:26.202Z,100551.16
2022-09-13T12:28:58.373Z,100559.13
2022-09-13T12:31:28.677Z,100550.81
2022-09-13T12:33:57.199Z,100561.97
2022-09-13T12:36:47.537Z,100548.28
2022-09-13T12:39:31.529Z,100532.16
2022-09-13T12:42:25.297Z,100538.38
2022-09-13T12:45:08.023Z,100536.66
2022-09-13T12:47:54.170Z,100546.78
2022-09-13T12:50:43.799Z,100548.44
2022-09-13T12:53:36.089Z,100542.19
2022-09-13T12:56:18.342Z,100533.84
2022-09-13T12:59:12.990Z,100543.44
2022-09-13T13:01:46.998Z,100536.47
2022-09-13T13:04:19.502Z,100539.66
2022-09-13T13:06:53.413Z,100547.06
2022-09-13T13:09:29.030Z,100546.91
2022-09-13T13:11:59.689Z,100543.25
2022-09-13T13:14:43.935Z,100548.69
2022-09-13T13:17:41.114Z,100548.91
2022-09-13T13:20:46.001Z,100543.84
2022-09-13T13:23:21.822Z,100548.13
2022-09-13T13:26:14.604Z,100545.28
2022-09-13T13:29:14.412Z,100549.75
2022-09-13T13:31:45.676Z,100537.72
2022-09-13T13:34:38.009Z,100534.72
2022-09-13T13:37:23.583Z,100542.47
2022-09-13T13:40:14.111Z,100530.69
2022-09-13T13:42:45.149Z,100533.72
2022-09-13T13:45:26.487Z,100521.38
2022-09-13T13:48:17.820Z,100525.72
2022-09-13T13:51:16.045Z,100523.38
2022-09-13T13:53:47.469Z,100517.97
2022-09-13T13:56:23.448Z,100521.13
2022-09-13T13:58:55.426Z,100512.19
2022-09-13T14:01:27.068Z,100512.56
2022-09-13T14:04:31.391Z,100509.03
2022-09-13T14:07:21.061Z,100508.97
2022-09-13T14:09:56.947Z,100513.88
2022-09-13T14:12:38.587Z,100511.75
2022-09-13T14:15:17.223Z,100522.72
2022-09-13T14:18:14.883Z,100513.66
2022-09-13T14:21:01.250Z,100519.06
2022-09-13T14:23:30.901Z,100527.94
2022-09-13T14:26:00.538Z,100520.59
2022-09-13T14:28:28.878Z,100507.41
2022-09-13T14:30:58.929Z,100516.69
2022-09-13T14:33:32.088Z,100511.81
2022-09-13T14:36:03.427Z,100511.84
2022-09-13T14:38:35.591Z,100517.16
2022-09-13T14:41:14.174Z,100518.31
2022-09-13T14:43:42.649Z,100510.94
2022-09-13T14:46:15.088Z,100502.38
2022-09-13T14:48:50.578Z,100487.97
2022-09-13T14:51:23.776Z,100465.53
2022-09-13T14:53:56.408Z,100474.47
2022-09-13T14:56:36.041Z,100459.66
2022-09-13T14:59:12.977Z,100451.38
2022-09-13T15:01:40.686Z,100448.00
2022-09-13T15:04:08.464Z,100450.75
2022-09-13T15:06:39.371Z,100444.69
2022-09-13T15:09:28.335Z,100438.16
2022-09-13T15:12:01.111Z,100450.66
2022-09-13T15:14:31.185Z,100428.34
2022-09-13T15:17:08.941Z,100444.81
2022-09-13T15:19:39.713Z,100420.06
2022-09-13T15:22:18.970Z,100447.81
2022-09-13T15:24:50.905Z,100460.44
2022-09-13T15:27:22.063Z,100465.22
2022-09-13T15:29:51.129Z,100457.66
2022-09-13T15:32:31.593Z,100445.00
2022-09-13T15:35:01.371Z,100449.44
2022-09-13T15:37:35.859Z,100471.50
2022-09-13T15:40:15.243Z,100460.53
2022-09-13T15:42:47.300Z,100464.28
2022-09-13T15:45:15.807Z,100470.13
2022-09-13T15:47:47.530Z,100471.00
2022-09-13T15:50:26.954Z,100479.47
2022-09-13T15:52:55.477Z,100484.66
2022-09-13T15:55:25.152Z,100488.31
2022-09-13T15:57:53.703Z,100507.41
2022-09-13T16:00:23.690Z,100496.06
2022-09-13T16:02:51.859Z,100495.81
2022-09-13T16:05:20.774Z,100506.69
2022-09-13T16:07:48.470Z,100491.34
2022-09-13T16:10:19.386Z,100486.13
2022-09-13T16:12:48.810Z,100483.09
2022-09-13T16:15:18.952Z,100499.66
2022-09-13T16:17:46.733Z,100498.13
2022-09-13T16:20:16.086Z,100503.56
2022-09-13T16:22:44.399Z,100508.38
2022-09-13T16:25:14.065Z,100503.94
2022-09-13T16:27:41.847Z,100493.41
2022-09-13T16:30:13.164Z,100494.94
2022-09-13T16:32:41.284Z,100495.41
2022-09-13T16:35:09.750Z,100485.16
2022-09-13T16:37:37.723Z,100496.69
2022-09-13T16:40:06.109Z,100496.97
2022-09-13T16:42:35.388Z,100490.50
2022-09-13T16:45:03.268Z,100504.91
2022-09-13T16:47:32.478Z,100487.97
2022-09-13T16:50:00.475Z,100488.84
2022-09-13T16:52:29.814Z,100479.38
2022-09-13T16:54:57.500Z,100480.06
2022-09-13T16:57:25.952Z,100485.31
2022-09-13T16:59:54.217Z,100478.53
2022-09-13T17:02:22.398Z,100471.97
2022-09-13T17:04:51.848Z,100474.25
2022-09-13T17:07:20.167Z,100485.91
2022-09-13T17:09:49.468Z,100483.56
2022-09-13T17:12:17.266Z,100479.94
2022-09-13T17:14:47.596Z,100465.66
2022-09-13T17:17:16.341Z,100468.56
2022-09-13T17:19:44.750Z,100455.53
2022-09-13T17:22:14.112Z,100451.63
2022-09-13T17:24:42.840Z,100444.38
2022-09-13T17:27:10.752Z,100439.00
2022-09-13T17:29:38.934Z,100430.97
2022-09-13T17:32:07.296Z,100422.28
2022-09-13T17:34:35.104Z,100430.09
2022-09-13T17:37:03.874Z,100413.00
2022-09-13T17:39:33.534Z,100419.00
2022-09-13T17:42:01.494Z,100411.75
2022-09-13T17:44:29.384Z,100421.47
2022-09-13T17:46:57.101Z,100406.69
2022-09-13T17:49:24.818Z,100426.97
2022-09-13T17:51:52.477Z,100395.59
2022-09-13T17:54:20.183Z,100399.19
2022-09-13T17:56:51.583Z,100397.00
2022-09-13T17:59:22.461Z,100412.81
2022-09-13T18:01:51.862Z,100374.69
2022-09-13T18:04:21.988Z,100368.16
2022-09-13T18:06:51.757Z,100361.78
2022-09-13T18:09:19.521Z,100345.44
2022-09-13T18:11:47.556Z,100361.16
2022-09-13T18:14:18.431Z,100354.09
2022-09-13T18:16:46.994Z,100346.31
2022-09-13T18:19:14.748Z,100335.16
2022-09-13T18:21:42.459Z,100346.91
2022-09-13T18:24:10.324Z,100335.81
2022-09-13T18:26:38.130Z,100337.22
2022-09-13T18:29:11.092Z,100337.88
2022-09-13T18:31:41.980Z,100345.22
2022-09-13T18:34:12.599Z,100331.19
2022-09-13T18:36:41.290Z,100304.56
2022-09-13T18:39:13.382Z,100323.78
2022-09-13T18:41:41.591Z,100305.00
2022-09-13T18:44:11.268Z,100320.91
2022-09-13T18:46:41.281Z,100317.59
2022-09-13T18:49:10.206Z,100330.78
2022-09-13T18:51:39.630Z,100322.78
2022-09-13T18:54:09.138Z,100320.28
2022-09-13T18:56:37.208Z,100301.94
2022-09-13T18:59:06.688Z,100305.00
2022-09-13T19:01:36.411Z,100320.22
2022-09-13T19:04:07.419Z,100291.47
2022-09-13T19:06:37.389Z,100268.03
2022-09-13T19:09:06.580Z,100301.06
2022-09-13T19:11:46.261Z,100282.94
2022-09-13T19:14:15.165Z,100289.50
2022-09-13T19:16:43.164Z,100271.56
2022-09-13T19:19:12.362Z,100283.75
2022-09-13T19:21:40.157Z,100281.25
2022-09-13T19:24:14.855Z,100265.97
2022-09-13T19:26:45.932Z,100251.09
2022-09-13T19:29:15.054Z,100267.41
2022-09-13T19:31:44.599Z,100242.81
2022-09-13T19:34:14.872Z,100257.28
2022-09-13T19:36:44.272Z,100252.38
2022-09-13T19:39:12.540Z,100227.22
2022-09-13T19:41:40.921Z,100211.97
2022-09-13T19:44:09.567Z,100212.75
2022-09-13T19:46:40.401Z,100210.16
2022-09-13T19:49:10.873Z,100221.13
2022-09-13T19:51:41.494Z,100211.50
2022-09-13T19:54:12.584Z,100186.47
2022-09-13T19:56:42.617Z,100206.38
2022-09-13T19:59:13.342Z,100181.25
2022-09-13T20:01:43.179Z,100204.16
2022-09-13T20:04:13.255Z,100217.91
2022-09-13T20:06:44.218Z,100178.56
2022-09-13T20:09:13.547Z,100182.75
2022-09-13T20:11:45.008Z,100175.25
2022-09-13T20:14:13.580Z,100168.25
2022-09-13T20:16:42.672Z,100143.94
2022-09-13T20:19:38.952Z,100133.44
2022-09-13T20:22:04.716Z,100130.75
2022-09-13T20:24:32.481Z,100131.38
2022-09-13T20:27:00.163Z,100110.38
2022-09-13T20:29:27.858Z,100119.75
2022-09-13T20:31:56.085Z,100096.41
2022-09-13T20:34:23.788Z,100113.03
2022-09-13T20:36:51.557Z,100110.16
2022-09-13T20:39:20.707Z,100098.59
2022-09-13T20:41:49.408Z,100075.91
2022-09-13T20:44:17.162Z,100080.09
2022-09-13T20:46:45.007Z,100067.34
2022-09-13T20:49:12.819Z,100092.28
2022-09-13T20:51:40.528Z,100060.94
2022-09-13T20:54:08.600Z,100076.78
2022-09-13T20:56:37.671Z,100062.41
2022-09-13T20:59:05.763Z,100070.63
2022-09-13T21:01:34.401Z,100071.50
2022-09-13T21:04:02.930Z,100055.59
2022-09-13T21:06:32.631Z,100054.72
2022-09-13T21:09:00.059Z,100052.72
2022-09-13T21:11:30.371Z,100053.19
2022-09-13T21:14:02.029Z,100061.22
2022-09-13T21:16:31.684Z,100074.81
2022-09-13T21:19:00.743Z,100038.09
2022-09-13T21:21:30.219Z,100049.66
2022-09-13T21:23:58.463Z,100040.97
2022-09-13T21:26:28.290Z,100047.16
2022-09-13T21:28:58.520Z,100040.97
2022-09-13T21:31:30.099Z,100046.13
2022-09-13T21:33:59.932Z,100053.34
2022-09-13T21:36:29.337Z,100036.66
2022-09-13T21:38:57.831Z,100029.66
2022-09-13T21:41:27.404Z,100039.56
2022-09-13T21:43:55.882Z,100033.38
2022-09-13T21:46:25.705Z,100056.41
2022-09-13T21:48:56.545Z,100030.28
2022-09-13T21:51:25.989Z,100026.38
2022-09-13T21:53:58.698Z,100039.69
2022-09-13T21:56:28.658Z,100032.94
2022-09-13T21:58:58.539Z,100033.78
2022-09-13T22:01:28.392Z,100043.88
2022-09-13T22:03:58.311Z,100039.75
2022-09-13T22:06:31.365Z,100040.16
2022-09-13T22:09:02.069Z,100022.25
2022-09-13T22:11:32.053Z,100038.72
2022-09-13T22:14:02.061Z,100037.03
2022-09-13T22:16:32.206Z,100052.03
2022-09-13T22:19:08.654Z,100032.06
2022-09-13T22:21:38.571Z,100024.91
2022-09-13T22:24:07.720Z,100031.72
2022-09-13T22:26:37.654Z,100037.44
2022-09-13T22:29:05.509Z,100028.25
2022-09-13T22:31:35.156Z,100060.75
2022-09-13T22:34:05.058Z,100030.69
2022-09-13T22:36:32.792Z,100045.09
2022-09-13T22:39:00.671Z,100027.81
2022-09-13T22:41:30.908Z,100030.69
2022-09-13T22:43:59.713Z,100030.03
2022-09-13T22:46:30.275Z,100027.19
2022-09-13T22:48:58.166Z,100027.84
2022-09-13T22:51:27.889Z,100037.84
2022-09-13T22:53:57.228Z,100020.38
2022-09-13T22:56:27.155Z,100029.03
2022-09-13T22:58:55.974Z,100030.25
2022-09-13T23:01:24.769Z,100025.97
2022-09-13T23:03:53.272Z,100036.88
2022-09-13T23:06:23.400Z,100030.69
2022-09-13T23:08:53.882Z,100021.84
2022-09-13T23:11:24.013Z,100016.28
2022-09-13T23:13:54.164Z,100024.50
2022-09-13T23:16:24.354Z,100045.31
2022-09-13T23:18:52.801Z,100027.81
2022-09-13T23:21:22.449Z,100032.31
2022-09-13T23:23:52.125Z,100039.34
2022-09-13T23:26:22.899Z,100036.44
2022-09-13T23:28:54.770Z,100024.69
2022-09-13T23:31:24.379Z,100010.09
2022-09-13T23:33:54.030Z,100043.44
2022-09-13T23:36:23.882Z,100031.25
2022-09-13T23:38:55.644Z,100034.41
2022-09-13T23:41:25.528Z,100031.72
2022-09-13T23:43:54.155Z,100033.75
2022-09-13T23:46:22.486Z,100010.09
2022-09-13T23:48:50.475Z,100006.38
2022-09-13T23:51:19.927Z,100026.78
2022-09-13T23:53:48.007Z,100023.91
2022-09-13T23:56:17.798Z,100008.03
2022-09-13T23:58:46.562Z,100021.72
